Modern Express — H9DG — position and weather

sailwx.info

Track history (hours):
 
Tides and Currents Weather Stations Pressure Air Temp Water Temp Dewpoint Dewpoint Depression Visibility Wind Speed Wind Dir Waves Ship Positions

Modern Express

Last reported at 2015-May-23 23:34 UTC. Time now 2015-May-24 11:21 UTC.
Position N 08°59' W 015°03'.

Length 164 m; beam 28 m.

Type: Cargo ship. MMSI: 356187000.

Date/timePositionNaut miles runAvg speedWind from/ knotsBaromVisibWave heightAir tempDewpointWater temp
2015-May-23 23:34N 08°59' W 015°03'  
2015-May-17 21:33N 34°33' W 011°26'1716.6
2015-May-17 20:33N 34°49' W 011°21'1716.6
2015-May-17 19:31N 35°05' W 011°15'1817.2
2015-May-17 18:29N 35°22' W 011°09'1617.2
2015-May-17 17:31N 35°38' W 011°04'2517.3
2015-May-17 16:06N 36°02' W 010°57'3216.8
2015-May-17 14:11N 36°33' W 010°47'1116.7
2015-May-17 13:32N 36°44' W 010°46'1616.6
2015-May-17 12:33N 37°00' W 010°45'1616.1
2015-May-17 11:33N 37°16' W 010°44'1615.5
2015-May-17 10:33N 37°32' W 010°43'1515.3
2015-May-17 09:33N 37°47' W 010°42'1515.4
2015-May-17 08:33N 38°03' W 010°41'1616.0
2015-May-17 07:33N 38°18' W 010°40'1616.5
2015-May-17 06:33N 38°35' W 010°38'1716.4
2015-May-17 05:32N 38°52' W 010°37'6215.5
2015-May-17 01:32N 39°54' W 010°32'  
2015-May-14 18:32N 50°32' E 000°08'1414.7
2015-May-14 17:33N 50°36' E 000°30'1515.0
2015-May-14 16:34N 50°44' E 000°49'1716.9
2015-May-14 15:33N 50°56' E 001°10'1818.6
2015-May-14 14:34N 51°07' E 001°33'1817.6
2015-May-14 13:33N 51°19' E 001°53'1313.3
2015-May-14 12:34N 51°21' E 002°14'1615.6
2015-May-14 11:33N 51°23' E 002°39'1312.6
2015-May-14 10:33N 51°23' E 002°59'1514.7
2015-May-14 09:33N 51°24' E 003°22'1111.1
2015-May-14 08:33N 51°25' E 003°40'1110.9
2015-May-14 07:34N 51°24' E 003°57'10 9.5
2015-May-14 06:33N 51°24' E 004°13'8 8.1
2015-May-14 05:34N 51°16' E 004°17'0 0.3
2015-May-14 04:34N 51°16' E 004°16'2 1.9
2015-May-14 03:31N 51°16' E 004°13'0 0.0
2015-May-14 02:31N 51°16' E 004°13'0 0.0
2015-May-14 01:31N 51°16' E 004°13'0 0.0
2015-May-14 00:31N 51°16' E 004°13'  
Track history (hours):
 
Tides and Currents Weather Stations Pressure Air Temp Water Temp Dewpoint Dewpoint Depression Visibility Wind Speed Wind Dir Waves Ship Positions

Modern Express

Last reported at 2015-May-23 23:34 UTC. Time now 2015-May-24 11:21 UTC.
Position N 08°59' W 015°03'.

Length 164 m; beam 28 m.

Type: Cargo ship. MMSI: 356187000.

Date/timePositionNaut miles runAvg speedWind from/ knotsBaromVisibWave heightAir tempDewpointWater temp
2015-May-23 23:34N 08°59' W 015°03'  
2015-May-17 21:33N 34°33' W 011°26'1716.6
2015-May-17 20:33N 34°49' W 011°21'1716.6
2015-May-17 19:31N 35°05' W 011°15'1817.2
2015-May-17 18:29N 35°22' W 011°09'1617.2
2015-May-17 17:31N 35°38' W 011°04'2517.3
2015-May-17 16:06N 36°02' W 010°57'3216.8
2015-May-17 14:11N 36°33' W 010°47'1116.7
2015-May-17 13:32N 36°44' W 010°46'1616.6
2015-May-17 12:33N 37°00' W 010°45'1616.1
2015-May-17 11:33N 37°16' W 010°44'1615.5
2015-May-17 10:33N 37°32' W 010°43'1515.3
2015-May-17 09:33N 37°47' W 010°42'1515.4
2015-May-17 08:33N 38°03' W 010°41'1616.0
2015-May-17 07:33N 38°18' W 010°40'1616.5
2015-May-17 06:33N 38°35' W 010°38'1716.4
2015-May-17 05:32N 38°52' W 010°37'6215.5
2015-May-17 01:32N 39°54' W 010°32'  
2015-May-14 18:32N 50°32' E 000°08'1414.7
2015-May-14 17:33N 50°36' E 000°30'1515.0
2015-May-14 16:34N 50°44' E 000°49'1716.9
2015-May-14 15:33N 50°56' E 001°10'1818.6
2015-May-14 14:34N 51°07' E 001°33'1817.6
2015-May-14 13:33N 51°19' E 001°53'1313.3
2015-May-14 12:34N 51°21' E 002°14'1615.6
2015-May-14 11:33N 51°23' E 002°39'1312.6
2015-May-14 10:33N 51°23' E 002°59'1514.7
2015-May-14 09:33N 51°24' E 003°22'1111.1
2015-May-14 08:33N 51°25' E 003°40'1110.9
2015-May-14 07:34N 51°24' E 003°57'10 9.5
2015-May-14 06:33N 51°24' E 004°13'8 8.1
2015-May-14 05:34N 51°16' E 004°17'0 0.3
2015-May-14 04:34N 51°16' E 004°16'2 1.9
2015-May-14 03:31N 51°16' E 004°13'0 0.0
2015-May-14 02:31N 51°16' E 004°13'0 0.0
2015-May-14 01:31N 51°16' E 004°13'0 0.0
2015-May-14 00:31N 51°16' E 004°13'  

Dump ship's entire track history